sensor_id;sensor_type;location;lat;lon;timestamp;pressure;altitude;pressure_sealevel;temperature;humidity
21817;BME280;13247;47.504;7.382;2023-06-22T00:01:17;97265.81;;;21.24;100.00
21817;BME280;13247;47.504;7.382;2023-06-22T00:04:01;97260.56;;;21.23;100.00
21817;BME280;13247;47.504;7.382;2023-06-22T00:06:46;97271.03;;;21.26;100.00
21817;BME280;13247;47.504;7.382;2023-06-22T00:09:31;97271.84;;;21.50;100.00
21817;BME280;13247;47.504;7.382;2023-06-22T00:12:17;97255.59;;;21.53;100.00
21817;BME280;13247;47.504;7.382;2023-06-22T00:15:01;97259.44;;;21.14;100.00
21817;BME280;13247;47.504;7.382;2023-06-22T00:17:46;97265.22;;;21.32;100.00
21817;BME280;13247;47.504;7.382;2023-06-22T00:20:31;97254.84;;;21.51;100.00
21817;BME280;13247;47.504;7.382;2023-06-22T00:23:16;97256.28;;;21.44;100.00
21817;BME280;13247;47.504;7.382;2023-06-22T00:26:02;97259.16;;;21.30;100.00
21817;BME280;13247;47.504;7.382;2023-06-22T00:28:47;97250.72;;;20.99;100.00
21817;BME280;13247;47.504;7.382;2023-06-22T00:31:31;97245.19;;;21.26;100.00
21817;BME280;13247;47.504;7.382;2023-06-22T00:34:16;97252.38;;;20.89;100.00
21817;BME280;13247;47.504;7.382;2023-06-22T00:37:00;97256.53;;;20.93;100.00
21817;BME280;13247;47.504;7.382;2023-06-22T00:39:45;97252.66;;;20.97;100.00
21817;BME280;13247;47.504;7.382;2023-06-22T00:42:30;97245.09;;;21.04;100.00
21817;BME280;13247;47.504;7.382;2023-06-22T00:45:15;97252.25;;;20.91;100.00
21817;BME280;13247;47.504;7.382;2023-06-22T00:48:00;97252.16;;;20.69;100.00
21817;BME280;13247;47.504;7.382;2023-06-22T00:50:45;97271.91;;;20.54;100.00
21817;BME280;13247;47.504;7.382;2023-06-22T00:53:30;97272.63;;;20.68;100.00
21817;BME280;13247;47.504;7.382;2023-06-22T00:56:19;97264.41;;;20.71;100.00
21817;BME280;13247;47.504;7.382;2023-06-22T00:59:09;97262.84;;;20.56;100.00
21817;BME280;13247;47.504;7.382;2023-06-22T01:01:56;97265.44;;;20.81;100.00
21817;BME280;13247;47.504;7.382;2023-06-22T01:04:41;97257.59;;;20.91;100.00
21817;BME280;13247;47.504;7.382;2023-06-22T01:07:35;97242.22;;;21.07;100.00
21817;BME280;13247;47.504;7.382;2023-06-22T01:10:41;97245.63;;;21.09;100.00
21817;BME280;13247;47.504;7.382;2023-06-22T01:16:33;97239.59;;;21.18;100.00
21817;BME280;13247;47.504;7.382;2023-06-22T01:19:49;97241.41;;;21.18;100.00
21817;BME280;13247;47.504;7.382;2023-06-22T01:25:45;97230.78;;;21.29;100.00
21817;BME280;13247;47.504;7.382;2023-06-22T01:28:46;97224.34;;;21.31;100.00
21817;BME280;13247;47.504;7.382;2023-06-22T01:31:33;97234.41;;;21.28;100.00
21817;BME280;13247;47.504;7.382;2023-06-22T01:34:20;97236.69;;;21.21;100.00
21817;BME280;13247;47.504;7.382;2023-06-22T01:37:06;97242.16;;;21.20;100.00
21817;BME280;13247;47.504;7.382;2023-06-22T01:39:51;97239.56;;;20.94;100.00
21817;BME280;13247;47.504;7.382;2023-06-22T01:42:37;97240.31;;;20.96;100.00
21817;BME280;13247;47.504;7.382;2023-06-22T01:45:23;97240.41;;;21.07;100.00
21817;BME280;13247;47.504;7.382;2023-06-22T01:48:08;97232.97;;;20.87;100.00
21817;BME280;13247;47.504;7.382;2023-06-22T01:50:54;97237.69;;;20.60;100.00
21817;BME280;13247;47.504;7.382;2023-06-22T01:53:39;97228.31;;;20.78;100.00
21817;BME280;13247;47.504;7.382;2023-06-22T01:56:24;97221.63;;;20.73;100.00
21817;BME280;13247;47.504;7.382;2023-06-22T01:59:20;97217.59;;;20.91;100.00
21817;BME280;13247;47.504;7.382;2023-06-22T02:02:11;97214.84;;;20.92;100.00
21817;BME280;13247;47.504;7.382;2023-06-22T02:05:04;97210.00;;;20.97;100.00
21817;BME280;13247;47.504;7.382;2023-06-22T02:08:15;97200.03;;;20.88;100.00
21817;BME280;13247;47.504;7.382;2023-06-22T02:11:03;97204.72;;;20.85;100.00
21817;BME280;13247;47.504;7.382;2023-06-22T02:13:51;97197.03;;;20.69;100.00
21817;BME280;13247;47.504;7.382;2023-06-22T02:16:36;97188.91;;;20.71;100.00
21817;BME280;13247;47.504;7.382;2023-06-22T02:19:26;97202.75;;;20.52;100.00
21817;BME280;13247;47.504;7.382;2023-06-22T02:22:11;97190.91;;;20.56;100.00
21817;BME280;13247;47.504;7.382;2023-06-22T02:24:59;97183.47;;;20.72;100.00
21817;BME280;13247;47.504;7.382;2023-06-22T02:27:44;97174.78;;;20.81;100.00
21817;BME280;13247;47.504;7.382;2023-06-22T02:30:29;97173.25;;;20.90;100.00
21817;BME280;13247;47.504;7.382;2023-06-22T02:33:14;97175.59;;;20.94;100.00
21817;BME280;13247;47.504;7.382;2023-06-22T02:35:58;97176.38;;;20.84;100.00
21817;BME280;13247;47.504;7.382;2023-06-22T02:38:43;97174.13;;;20.90;100.00
21817;BME280;13247;47.504;7.382;2023-06-22T02:41:32;97167.72;;;20.69;100.00
21817;BME280;13247;47.504;7.382;2023-06-22T02:44:17;97158.19;;;20.54;100.00
21817;BME280;13247;47.504;7.382;2023-06-22T02:47:03;97164.88;;;20.60;100.00
21817;BME280;13247;47.504;7.382;2023-06-22T02:49:48;97168.19;;;20.63;100.00
21817;BME280;13247;47.504;7.382;2023-06-22T02:52:33;97165.88;;;20.22;100.00
21817;BME280;13247;47.504;7.382;2023-06-22T02:55:18;97157.31;;;20.30;100.00
21817;BME280;13247;47.504;7.382;2023-06-22T02:58:02;97161.16;;;20.26;100.00
21817;BME280;13247;47.504;7.382;2023-06-22T03:00:49;97164.69;;;20.14;100.00
21817;BME280;13247;47.504;7.382;2023-06-22T03:03:37;97155.34;;;20.21;100.00
21817;BME280;13247;47.504;7.382;2023-06-22T03:06:22;97167.47;;;20.25;100.00
21817;BME280;13247;47.504;7.382;2023-06-22T03:09:08;97156.56;;;20.28;100.00
21817;BME280;13247;47.504;7.382;2023-06-22T03:11:52;97158.38;;;20.27;100.00
21817;BME280;13247;47.504;7.382;2023-06-22T03:14:37;97156.97;;;20.34;100.00
21817;BME280;13247;47.504;7.382;2023-06-22T03:17:22;97148.00;;;20.48;100.00
21817;BME280;13247;47.504;7.382;2023-06-22T03:20:08;97145.59;;;19.84;100.00
21817;BME280;13247;47.504;7.382;2023-06-22T03:22:53;97158.00;;;19.96;100.00
21817;BME280;13247;47.504;7.382;2023-06-22T03:25:38;97156.88;;;19.75;100.00
21817;BME280;13247;47.504;7.382;2023-06-22T03:28:22;97149.47;;;19.42;100.00
21817;BME280;13247;47.504;7.382;2023-06-22T03:31:07;97168.44;;;18.98;100.00
21817;BME280;13247;47.504;7.382;2023-06-22T03:33:53;97174.41;;;19.14;100.00
21817;BME280;13247;47.504;7.382;2023-06-22T03:36:38;97155.84;;;19.39;100.00
21817;BME280;13247;47.504;7.382;2023-06-22T03:39:22;97161.06;;;19.66;100.00
21817;BME280;13247;47.504;7.382;2023-06-22T03:42:07;97162.94;;;19.51;100.00
21817;BME280;13247;47.504;7.382;2023-06-22T03:44:53;97156.38;;;19.70;100.00
21817;BME280;13247;47.504;7.382;2023-06-22T03:47:37;97158.38;;;19.91;100.00
21817;BME280;13247;47.504;7.382;2023-06-22T03:50:22;97160.88;;;20.05;100.00
21817;BME280;13247;47.504;7.382;2023-06-22T03:53:06;97160.97;;;20.29;100.00
21817;BME280;13247;47.504;7.382;2023-06-22T03:55:52;97148.19;;;20.45;100.00
21817;BME280;13247;47.504;7.382;2023-06-22T03:58:36;97152.50;;;20.35;100.00
21817;BME280;13247;47.504;7.382;2023-06-22T04:01:27;97162.56;;;20.19;100.00
21817;BME280;13247;47.504;7.382;2023-06-22T04:04:11;97162.56;;;20.19;100.00
21817;BME280;13247;47.504;7.382;2023-06-22T04:06:56;97166.63;;;20.24;100.00
21817;BME280;13247;47.504;7.382;2023-06-22T04:09:41;97167.50;;;20.36;100.00
21817;BME280;13247;47.504;7.382;2023-06-22T04:12:26;97158.94;;;20.20;100.00
21817;BME280;13247;47.504;7.382;2023-06-22T04:15:11;97168.78;;;19.82;100.00
21817;BME280;13247;47.504;7.382;2023-06-22T04:17:56;97163.88;;;20.01;100.00
21817;BME280;13247;47.504;7.382;2023-06-22T04:20:41;97158.88;;;19.96;100.00
21817;BME280;13247;47.504;7.382;2023-06-22T04:23:26;97171.41;;;20.07;100.00
21817;BME280;13247;47.504;7.382;2023-06-22T04:26:10;97166.16;;;20.18;100.00
21817;BME280;13247;47.504;7.382;2023-06-22T04:28:55;97166.28;;;20.29;100.00
21817;BME280;13247;47.504;7.382;2023-06-22T04:31:40;97168.69;;;20.32;100.00
21817;BME280;13247;47.504;7.382;2023-06-22T04:34:25;97167.88;;;20.31;100.00
21817;BME280;13247;47.504;7.382;2023-06-22T04:37:13;97156.41;;;20.06;100.00
21817;BME280;13247;47.504;7.382;2023-06-22T04:40:00;97159.97;;;20.17;100.00
21817;BME280;13247;47.504;7.382;2023-06-22T04:42:45;97158.88;;;20.45;100.00
21817;BME280;13247;47.504;7.382;2023-06-22T04:45:37;97157.31;;;20.30;100.00
21817;BME280;13247;47.504;7.382;2023-06-22T04:48:24;97149.78;;;20.24;100.00
21817;BME280;13247;47.504;7.382;2023-06-22T04:51:09;97151.03;;;20.31;100.00
21817;BME280;13247;47.504;7.382;2023-06-22T04:53:54;97154.00;;;20.39;100.00
21817;BME280;13247;47.504;7.382;2023-06-22T04:56:44;97139.66;;;20.29;100.00
21817;BME280;13247;47.504;7.382;2023-06-22T04:59:31;97142.38;;;20.04;100.00
21817;BME280;13247;47.504;7.382;2023-06-22T05:02:16;97148.31;;;20.07;100.00
21817;BME280;13247;47.504;7.382;2023-06-22T05:05:01;97155.69;;;19.91;100.00
21817;BME280;13247;47.504;7.382;2023-06-22T05:07:51;97142.38;;;20.04;100.00
21817;BME280;13247;47.504;7.382;2023-06-22T05:10:37;97148.38;;;19.70;100.00
21817;BME280;13247;47.504;7.382;2023-06-22T05:13:21;97149.53;;;19.78;100.00
21817;BME280;13247;47.504;7.382;2023-06-22T05:16:06;97154.97;;;19.89;100.00
21817;BME280;13247;47.504;7.382;2023-06-22T05:18:52;97149.16;;;20.08;100.00
21817;BME280;13247;47.504;7.382;2023-06-22T05:21:38;97144.25;;;20.27;100.00
21817;BME280;13247;47.504;7.382;2023-06-22T05:24:23;97139.59;;;20.65;100.00
21817;BME280;13247;47.504;7.382;2023-06-22T05:27:08;97131.41;;;20.79;100.00
21817;BME280;13247;47.504;7.382;2023-06-22T05:29:53;97131.69;;;20.87;100.00
21817;BME280;13247;47.504;7.382;2023-06-22T05:32:37;97123.00;;;20.96;100.00
21817;BME280;13247;47.504;7.382;2023-06-22T05:35:22;97104.28;;;20.85;100.00
21817;BME280;13247;47.504;7.382;2023-06-22T05:38:07;97099.66;;;20.76;100.00
21817;BME280;13247;47.504;7.382;2023-06-22T05:40:52;97097.22;;;21.08;100.00
21817;BME280;13247;47.504;7.382;2023-06-22T05:43:36;97098.81;;;21.10;100.00
21817;BME280;13247;47.504;7.382;2023-06-22T05:46:21;97097.50;;;21.27;100.00
21817;BME280;13247;47.504;7.382;2023-06-22T05:49:05;97112.69;;;21.49;100.00
21817;BME280;13247;47.504;7.382;2023-06-22T05:51:50;97131.56;;;21.24;100.00
21817;BME280;13247;47.504;7.382;2023-06-22T05:54:35;97148.19;;;21.16;100.00
21817;BME280;13247;47.504;7.382;2023-06-22T05:57:20;97168.28;;;20.85;100.00
21817;BME280;13247;47.504;7.382;2023-06-22T06:00:07;97176.53;;;21.17;100.00
21817;BME280;13247;47.504;7.382;2023-06-22T06:02:55;97203.81;;;21.09;100.00
21817;BME280;13247;47.504;7.382;2023-06-22T06:05:39;97203.91;;;21.43;100.00
21817;BME280;13247;47.504;7.382;2023-06-22T06:08:24;97227.84;;;20.97;100.00
21817;BME280;13247;47.504;7.382;2023-06-22T06:11:09;97254.97;;;21.15;100.00
21817;BME280;13247;47.504;7.382;2023-06-22T06:13:53;97268.34;;;21.26;100.00
21817;BME280;13247;47.504;7.382;2023-06-22T06:16:38;97251.66;;;20.87;100.00
21817;BME280;13247;47.504;7.382;2023-06-22T06:19:22;97264.81;;;21.01;100.00
21817;BME280;13247;47.504;7.382;2023-06-22T06:22:07;97270.13;;;21.49;100.00
21817;BME280;13247;47.504;7.382;2023-06-22T06:24:52;97282.69;;;21.36;100.00
21817;BME280;13247;47.504;7.382;2023-06-22T06:27:37;97269.47;;;21.34;100.00
21817;BME280;13247;47.504;7.382;2023-06-22T06:30:21;97280.97;;;21.24;100.00
21817;BME280;13247;47.504;7.382;2023-06-22T06:33:07;97269.94;;;21.28;100.00
21817;BME280;13247;47.504;7.382;2023-06-22T06:35:53;97253.91;;;21.52;100.00
21817;BME280;13247;47.504;7.382;2023-06-22T06:38:37;97263.19;;;21.81;100.00
21817;BME280;13247;47.504;7.382;2023-06-22T06:41:22;97254.63;;;22.00;100.00
21817;BME280;13247;47.504;7.382;2023-06-22T06:44:07;97248.59;;;21.74;100.00
21817;BME280;13247;47.504;7.382;2023-06-22T06:46:52;97220.41;;;21.94;100.00
21817;BME280;13247;47.504;7.382;2023-06-22T06:49:38;97234.25;;;22.32;100.00
21817;BME280;13247;47.504;7.382;2023-06-22T06:52:23;97241.50;;;22.52;100.00
21817;BME280;13247;47.504;7.382;2023-06-22T06:55:08;97222.66;;;22.53;100.00
21817;BME280;13247;47.504;7.382;2023-06-22T06:57:56;97215.16;;;22.58;100.00
21817;BME280;13247;47.504;7.382;2023-06-22T07:00:41;97227.25;;;22.85;100.00
21817;BME280;13247;47.504;7.382;2023-06-22T07:03:25;97236.00;;;22.87;100.00
21817;BME280;13247;47.504;7.382;2023-06-22T07:06:10;97234.09;;;23.09;100.00
21817;BME280;13247;47.504;7.382;2023-06-22T07:08:55;97233.53;;;22.95;100.00
21817;BME280;13247;47.504;7.382;2023-06-22T07:11:40;97250.97;;;22.89;100.00
21817;BME280;13247;47.504;7.382;2023-06-22T07:14:24;97252.06;;;22.53;100.00
21817;BME280;13247;47.504;7.382;2023-06-22T07:17:09;97285.81;;;21.99;100.00
21817;BME280;13247;47.504;7.382;2023-06-22T07:19:53;97264.72;;;22.18;100.00
21817;BME280;13247;47.504;7.382;2023-06-22T07:22:39;97253.06;;;22.41;100.00
21817;BME280;13247;47.504;7.382;2023-06-22T07:25:24;97235.19;;;22.42;100.00
21817;BME280;13247;47.504;7.382;2023-06-22T07:28:09;97240.69;;;22.40;100.00
21817;BME280;13247;47.504;7.382;2023-06-22T07:30:53;97231.28;;;22.79;100.00
21817;BME280;13247;47.504;7.382;2023-06-22T07:33:38;97223.53;;;23.08;100.00
21817;BME280;13247;47.504;7.382;2023-06-22T07:36:22;97222.75;;;22.85;100.00
21817;BME280;13247;47.504;7.382;2023-06-22T07:39:07;97225.72;;;23.03;100.00
21817;BME280;13247;47.504;7.382;2023-06-22T07:41:52;97223.94;;;23.24;100.00
21817;BME280;13247;47.504;7.382;2023-06-22T07:44:37;97209.59;;;23.57;100.00
21817;BME280;13247;47.504;7.382;2023-06-22T07:47:21;97202.28;;;23.59;100.00
21817;BME280;13247;47.504;7.382;2023-06-22T07:50:10;97176.53;;;23.67;100.00
21817;BME280;13247;47.504;7.382;2023-06-22T07:52:54;97165.72;;;23.78;100.00
21817;BME280;13247;47.504;7.382;2023-06-22T07:55:39;97165.81;;;23.97;100.00
21817;BME280;13247;47.504;7.382;2023-06-22T07:58:23;97160.63;;;24.26;100.00
21817;BME280;13247;47.504;7.382;2023-06-22T08:01:08;97142.41;;;24.30;100.00
21817;BME280;13247;47.504;7.382;2023-06-22T08:03:53;97140.06;;;24.55;100.00
21817;BME280;13247;47.504;7.382;2023-06-22T08:06:37;97129.91;;;24.59;100.00
21817;BME280;13247;47.504;7.382;2023-06-22T08:09:22;97116.63;;;24.67;100.00
21817;BME280;13247;47.504;7.382;2023-06-22T08:12:07;97122.06;;;24.86;100.00
21817;BME280;13247;47.504;7.382;2023-06-22T08:14:52;97088.31;;;24.93;100.00
21817;BME280;13247;47.504;7.382;2023-06-22T08:17:37;97074.03;;;24.64;100.00
21817;BME280;13247;47.504;7.382;2023-06-22T08:20:22;97067.13;;;24.71;100.00
21817;BME280;13247;47.504;7.382;2023-06-22T08:23:07;97075.19;;;24.80;100.00
21817;BME280;13247;47.504;7.382;2023-06-22T08:25:51;97081.09;;;24.84;100.00
21817;BME280;13247;47.504;7.382;2023-06-22T08:28:36;97109.78;;;24.83;100.00
21817;BME280;13247;47.504;7.382;2023-06-22T08:31:20;97104.09;;;24.67;100.00
21817;BME280;13247;47.504;7.382;2023-06-22T08:34:05;97101.13;;;24.70;100.00
21817;BME280;13247;47.504;7.382;2023-06-22T08:36:50;97099.41;;;24.50;100.00
21817;BME280;13247;47.504;7.382;2023-06-22T08:39:35;97101.13;;;24.51;100.00
21817;BME280;13247;47.504;7.382;2023-06-22T08:42:20;97089.72;;;24.78;100.00
21817;BME280;13247;47.504;7.382;2023-06-22T08:45:05;97084.34;;;24.78;100.00
21817;BME280;13247;47.504;7.382;2023-06-22T08:47:50;97091.25;;;24.71;100.00
21817;BME280;13247;47.504;7.382;2023-06-22T08:50:35;97098.00;;;24.65;100.00
21817;BME280;13247;47.504;7.382;2023-06-22T08:53:19;97089.41;;;24.62;100.00
21817;BME280;13247;47.504;7.382;2023-06-22T08:56:04;97102.69;;;24.73;100.00
21817;BME280;13247;47.504;7.382;2023-06-22T08:58:49;97109.00;;;24.43;100.00
21817;BME280;13247;47.504;7.382;2023-06-22T09:01:33;97123.44;;;24.52;100.00
21817;BME280;13247;47.504;7.382;2023-06-22T09:04:18;97118.00;;;24.23;100.00
21817;BME280;13247;47.504;7.382;2023-06-22T09:07:03;97114.13;;;23.76;100.00
21817;BME280;13247;47.504;7.382;2023-06-22T09:09:47;97093.16;;;24.11;100.00
21817;BME280;13247;47.504;7.382;2023-06-22T09:12:33;97090.25;;;24.03;100.00
21817;BME280;13247;47.504;7.382;2023-06-22T09:15:17;97087.13;;;24.29;100.00
21817;BME280;13247;47.504;7.382;2023-06-22T09:18:02;97080.38;;;24.53;100.00
21817;BME280;13247;47.504;7.382;2023-06-22T09:20:47;97090.69;;;24.58;100.00
21817;BME280;13247;47.504;7.382;2023-06-22T09:23:32;97082.22;;;24.72;100.00
21817;BME280;13247;47.504;7.382;2023-06-22T09:26:19;97076.72;;;24.64;100.00
21817;BME280;13247;47.504;7.382;2023-06-22T09:29:07;97073.34;;;24.90;100.00
21817;BME280;13247;47.504;7.382;2023-06-22T09:31:52;97065.69;;;24.67;100.00
21817;BME280;13247;47.504;7.382;2023-06-22T09:34:38;97068.69;;;24.83;100.00
21817;BME280;13247;47.504;7.382;2023-06-22T09:37:23;97056.78;;;24.57;100.00
21817;BME280;13247;47.504;7.382;2023-06-22T09:40:08;97064.19;;;24.83;100.00
21817;BME280;13247;47.504;7.382;2023-06-22T09:42:54;97069.81;;;24.80;100.00
21817;BME280;13247;47.504;7.382;2023-06-22T09:45:39;97063.03;;;24.96;100.00
21817;BME280;13247;47.504;7.382;2023-06-22T09:48:24;97067.84;;;24.82;100.00
21817;BME280;13247;47.504;7.382;2023-06-22T09:51:08;97071.19;;;24.65;100.00
21817;BME280;13247;47.504;7.382;2023-06-22T09:53:53;97079.16;;;24.76;100.00
21817;BME280;13247;47.504;7.382;2023-06-22T09:56:39;97082.47;;;24.69;100.00
21817;BME280;13247;47.504;7.382;2023-06-22T09:59:23;97095.22;;;24.96;100.00
21817;BME280;13247;47.504;7.382;2023-06-22T10:02:08;97095.09;;;24.97;100.00
21817;BME280;13247;47.504;7.382;2023-06-22T10:04:53;97088.44;;;24.82;100.00
21817;BME280;13247;47.504;7.382;2023-06-22T10:07:38;97096.34;;;24.93;100.00
21817;BME280;13247;47.504;7.382;2023-06-22T10:10:26;97097.03;;;24.57;100.00
21817;BME280;13247;47.504;7.382;2023-06-22T10:13:11;97094.94;;;24.89;100.00
21817;BME280;13247;47.504;7.382;2023-06-22T10:15:56;97100.03;;;25.02;100.00
21817;BME280;13247;47.504;7.382;2023-06-22T10:18:40;97101.16;;;25.09;100.00
21817;BME280;13247;47.504;7.382;2023-06-22T10:21:25;97096.34;;;24.93;100.00
21817;BME280;13247;47.504;7.382;2023-06-22T10:24:12;97106.25;;;24.83;100.00
21817;BME280;13247;47.504;7.382;2023-06-22T10:26:56;97104.81;;;24.88;100.00
21817;BME280;13247;47.504;7.382;2023-06-22T10:29:42;97102.44;;;24.95;100.00
21817;BME280;13247;47.504;7.382;2023-06-22T10:32:27;97109.31;;;24.69;100.00
21817;BME280;13247;47.504;7.382;2023-06-22T10:35:15;97121.22;;;24.76;100.00
21817;BME280;13247;47.504;7.382;2023-06-22T10:38:00;97124.16;;;25.11;100.00
21817;BME280;13247;47.504;7.382;2023-06-22T10:40:45;97131.81;;;24.87;100.00
21817;BME280;13247;47.504;7.382;2023-06-22T10:43:30;97142.66;;;25.33;100.00
21817;BME280;13247;47.504;7.382;2023-06-22T10:46:15;97146.31;;;25.32;100.00
21817;BME280;13247;47.504;7.382;2023-06-22T10:48:59;97162.44;;;25.61;100.00
21817;BME280;13247;47.504;7.382;2023-06-22T10:51:44;97165.78;;;25.73;100.00
21817;BME280;13247;47.504;7.382;2023-06-22T10:54:28;97177.22;;;25.75;100.00
21817;BME280;13247;47.504;7.382;2023-06-22T10:57:13;97181.00;;;25.45;100.00
21817;BME280;13247;47.504;7.382;2023-06-22T10:59:58;97182.38;;;25.58;100.00
21817;BME280;13247;47.504;7.382;2023-06-22T11:02:42;97186.25;;;25.83;100.00
21817;BME280;13247;47.504;7.382;2023-06-22T11:05:27;97191.81;;;25.62;100.00
21817;BME280;13247;47.504;7.382;2023-06-22T11:08:12;97170.88;;;25.76;100.00
21817;BME280;13247;47.504;7.382;2023-06-22T11:10:56;97160.88;;;26.05;100.00
21817;BME280;13247;47.504;7.382;2023-06-22T11:13:41;97157.59;;;25.64;100.00
21817;BME280;13247;47.504;7.382;2023-06-22T11:16:25;97144.72;;;25.78;100.00
21817;BME280;13247;47.504;7.382;2023-06-22T11:19:10;97149.16;;;26.06;100.00
21817;BME280;13247;47.504;7.382;2023-06-22T11:21:55;97152.56;;;26.08;100.00
21817;BME280;13247;47.504;7.382;2023-06-22T11:24:39;97155.19;;;26.17;100.00
21817;BME280;13247;47.504;7.382;2023-06-22T11:27:24;97170.97;;;26.30;100.00
21817;BME280;13247;47.504;7.382;2023-06-22T11:30:09;97174.78;;;26.37;100.00
21817;BME280;13247;47.504;7.382;2023-06-22T11:32:54;97181.03;;;26.28;100.00
21817;BME280;13247;47.504;7.382;2023-06-22T11:35:38;97209.41;;;26.13;100.00
21817;BME280;13247;47.504;7.382;2023-06-22T11:38:24;97216.34;;;25.96;100.00
21817;BME280;13247;47.504;7.382;2023-06-22T11:41:10;97220.31;;;26.02;100.00
21817;BME280;13247;47.504;7.382;2023-06-22T11:43:55;97208.41;;;26.14;100.00
21817;BME280;13247;47.504;7.382;2023-06-22T11:46:39;97194.69;;;26.07;100.00
21817;BME280;13247;47.504;7.382;2023-06-22T11:49:24;97197.81;;;26.12;100.00
21817;BME280;13247;47.504;7.382;2023-06-22T11:52:08;97211.22;;;26.22;100.00
21817;BME280;13247;47.504;7.382;2023-06-22T11:54:53;97208.63;;;26.30;100.00
21817;BME280;13247;47.504;7.382;2023-06-22T11:57:38;97205.94;;;26.30;100.00
21817;BME280;13247;47.504;7.382;2023-06-22T12:00:23;97206.06;;;26.65;100.00
21817;BME280;13247;47.504;7.382;2023-06-22T12:03:09;97200.50;;;26.76;100.00
21817;BME280;13247;47.504;7.382;2023-06-22T12:05:54;97192.66;;;26.83;100.00
21817;BME280;13247;47.504;7.382;2023-06-22T12:08:39;97205.75;;;26.95;100.00
21817;BME280;13247;47.504;7.382;2023-06-22T12:11:23;97199.44;;;26.87;100.00
21817;BME280;13247;47.504;7.382;2023-06-22T12:14:08;97177.91;;;26.60;100.00
21817;BME280;13247;47.504;7.382;2023-06-22T12:16:53;97188.91;;;26.66;100.00
21817;BME280;13247;47.504;7.382;2023-06-22T12:19:37;97182.16;;;26.62;100.00
21817;BME280;13247;47.504;7.382;2023-06-22T12:22:22;97165.22;;;26.52;100.00
21817;BME280;13247;47.504;7.382;2023-06-22T12:25:07;97172.84;;;26.57;100.00
21817;BME280;13247;47.504;7.382;2023-06-22T12:27:52;97168.69;;;26.62;100.00
21817;BME280;13247;47.504;7.382;2023-06-22T12:30:38;97168.78;;;26.70;100.00
21817;BME280;13247;47.504;7.382;2023-06-22T12:33:23;97167.22;;;26.77;100.00
21817;BME280;13247;47.504;7.382;2023-06-22T12:36:07;97187.69;;;26.88;100.00
21817;BME280;13247;47.504;7.382;2023-06-22T12:38:52;97179.16;;;26.92;100.00
21817;BME280;13247;47.504;7.382;2023-06-22T12:41:36;97186.13;;;26.85;100.00
21817;BME280;13247;47.504;7.382;2023-06-22T12:44:21;97190.63;;;26.94;100.00
21817;BME280;13247;47.504;7.382;2023-06-22T12:47:06;97192.97;;;26.97;100.00
21817;BME280;13247;47.504;7.382;2023-06-22T12:49:50;97210.84;;;26.98;100.00
21817;BME280;13247;47.504;7.382;2023-06-22T12:52:37;97209.56;;;26.75;100.00
21817;BME280;13247;47.504;7.382;2023-06-22T12:55:24;97192.72;;;26.46;100.00
21817;BME280;13247;47.504;7.382;2023-06-22T12:58:08;97193.78;;;26.53;100.00
21817;BME280;13247;47.504;7.382;2023-06-22T13:00:53;97204.19;;;26.66;100.00
21817;BME280;13247;47.504;7.382;2023-06-22T13:03:38;97194.28;;;26.66;100.00
21817;BME280;13247;47.504;7.382;2023-06-22T13:06:22;97208.25;;;26.52;100.00
21817;BME280;13247;47.504;7.382;2023-06-22T13:09:09;97209.44;;;26.40;100.00
21817;BME280;13247;47.504;7.382;2023-06-22T13:11:54;97214.25;;;26.46;100.00
21817;BME280;13247;47.504;7.382;2023-06-22T13:14:38;97229.00;;;26.32;100.00
21817;BME280;13247;47.504;7.382;2023-06-22T13:17:24;97227.47;;;26.30;100.00
21817;BME280;13247;47.504;7.382;2023-06-22T13:20:08;97222.25;;;26.56;100.00
21817;BME280;13247;47.504;7.382;2023-06-22T13:22:54;97203.75;;;26.43;100.00
21817;BME280;13247;47.504;7.382;2023-06-22T13:25:39;97161.34;;;26.37;100.00
21817;BME280;13247;47.504;7.382;2023-06-22T13:28:24;97186.41;;;26.55;100.00
21817;BME280;13247;47.504;7.382;2023-06-22T13:31:09;97191.13;;;26.80;100.00
21817;BME280;13247;47.504;7.382;2023-06-22T13:33:53;97168.88;;;26.51;100.00
21817;BME280;13247;47.504;7.382;2023-06-22T13:36:38;97181.16;;;26.63;100.00
21817;BME280;13247;47.504;7.382;2023-06-22T13:39:23;97195.06;;;26.59;100.00
21817;BME280;13247;47.504;7.382;2023-06-22T13:42:07;97192.91;;;26.62;100.00
21817;BME280;13247;47.504;7.382;2023-06-22T13:44:52;97179.00;;;26.67;100.00
21817;BME280;13247;47.504;7.382;2023-06-22T13:47:37;97186.66;;;26.62;100.00
21817;BME280;13247;47.504;7.382;2023-06-22T13:50:22;97176.84;;;26.80;100.00
21817;BME280;13247;47.504;7.382;2023-06-22T13:53:06;97169.38;;;27.09;100.00
21817;BME280;13247;47.504;7.382;2023-06-22T13:55:51;97153.41;;;27.07;100.00
21817;BME280;13247;47.504;7.382;2023-06-22T13:58:35;97149.34;;;27.29;100.00
21817;BME280;13247;47.504;7.382;2023-06-22T14:01:20;97152.50;;;27.60;100.00
21817;BME280;13247;47.504;7.382;2023-06-22T14:04:04;97144.91;;;27.81;100.00
21817;BME280;13247;47.504;7.382;2023-06-22T14:06:49;97140.88;;;27.59;100.00
21817;BME280;13247;47.504;7.382;2023-06-22T14:09:33;97139.56;;;27.63;100.00
21817;BME280;13247;47.504;7.382;2023-06-22T14:12:18;97126.59;;;27.67;100.00
21817;BME280;13247;47.504;7.382;2023-06-22T14:15:04;97130.53;;;27.98;100.00
21817;BME280;13247;47.504;7.382;2023-06-22T14:17:48;97125.16;;;27.98;100.00
21817;BME280;13247;47.504;7.382;2023-06-22T14:20:33;97134.53;;;27.94;100.00
21817;BME280;13247;47.504;7.382;2023-06-22T14:23:17;97126.63;;;28.26;100.00
21817;BME280;13247;47.504;7.382;2023-06-22T14:26:02;97135.44;;;28.36;100.00
21817;BME280;13247;47.504;7.382;2023-06-22T14:28:47;97131.84;;;28.61;100.00
21817;BME280;13247;47.504;7.382;2023-06-22T14:31:33;97139.84;;;28.45;100.00